Time;durP1;ratioP1;P1;durP2;ratioP2;P2;SDS_P1;SDS_P2;PMS_P1;PMS_P2;Temp;Humidity;BMP_temperature;BMP_pressure;BME280_temperature;BME280_humidity;BME280_pressure;Samples;Min_cycle;Max_cycle;Signal;HPM_P1;HPM_P2
2022/06/23 00:01:54;;;;;;;4.88;3.60;;;20.00;99.90;;;;;;5092370;28;20024;-75
2022/06/23 00:04:23;;;;;;;4.85;3.22;;;20.00;99.90;;;;;;5088800;28;20388;-75
2022/06/23 00:07:01;;;;;;;4.05;3.55;;;20.00;99.90;;;;;;5097855;28;20024;-75
2022/06/23 00:09:39;;;;;;;5.88;3.08;;;19.90;99.90;;;;;;5095317;28;20016;-75
2022/06/23 00:12:24;;;;;;;5.78;4.25;;;19.80;99.90;;;;;;5089446;28;20056;-76
2022/06/23 00:14:54;;;;;;;8.40;4.10;;;19.80;99.90;;;;;;5092068;28;20027;-74
2022/06/23 00:17:45;;;;;;;6.55;4.03;;;19.80;99.90;;;;;;5091895;28;20059;-76
2022/06/23 00:20:10;;;;;;;6.70;4.30;;;19.70;99.90;;;;;;5096596;28;20024;-75
2022/06/23 00:22:39;;;;;;;6.85;5.40;;;19.70;99.90;;;;;;5097413;28;20083;-73
2022/06/23 00:25:07;;;;;;;9.27;4.88;;;19.70;99.90;;;;;;5097908;28;20077;-74
2022/06/23 00:27:37;;;;;;;9.93;4.72;;;19.70;99.90;;;;;;5094556;28;20029;-73
2022/06/23 00:30:06;;;;;;;;;;;19.60;99.90;;;;;;5080603;28;20024;-73
2022/06/23 00:32:32;;;;;;;7.65;4.70;;;19.60;99.90;;;;;;5082772;28;19911;-73
2022/06/23 00:35:06;;;;;;;5.65;4.43;;;19.50;99.90;;;;;;5080875;28;20480;-73
2022/06/23 00:37:32;;;;;;;12.25;4.53;;;19.60;99.90;;;;;;5082780;28;20024;-73
2022/06/23 00:39:57;;;;;;;6.72;4.35;;;19.50;99.90;;;;;;5092745;28;20054;-74
2022/06/23 00:42:30;;;;;;;9.60;3.85;;;19.50;99.90;;;;;;5090505;28;20480;-73
2022/06/23 00:45:39;;;;;;;5.55;4.18;;;19.40;99.90;;;;;;5086182;28;20023;-73
2022/06/23 00:48:16;;;;;;;4.63;3.60;;;19.40;99.90;;;;;;5088695;28;20055;-73
2022/06/23 00:51:13;;;;;;;7.38;4.13;;;19.40;99.90;;;;;;5093799;28;20036;-73
2022/06/23 00:53:45;;;;;;;6.25;3.97;;;19.30;99.90;;;;;;5095088;28;20024;-74
2022/06/23 00:56:32;;;;;;;9.73;4.57;;;19.30;99.90;;;;;;5093505;28;20027;-73
2022/06/23 00:59:10;;;;;;;7.60;3.92;;;19.20;99.90;;;;;;5086913;28;20491;-73
2022/06/23 01:01:55;;;;;;;6.70;4.28;;;19.20;99.90;;;;;;5092519;28;20016;-73
2022/06/23 01:04:46;;;;;;;8.90;5.03;;;19.20;99.90;;;;;;5079005;28;20020;-74
2022/06/23 01:07:40;;;;;;;5.25;4.13;;;19.10;99.90;;;;;;5080634;28;20016;-74
2022/06/23 01:10:19;;;;;;;8.50;4.18;;;19.10;99.90;;;;;;5081811;28;20024;-73
2022/06/23 01:13:07;;;;;;;5.50;4.00;;;19.10;99.90;;;;;;5085322;28;20032;-73
2022/06/23 01:15:40;;;;;;;7.88;4.18;;;19.10;99.90;;;;;;5084848;28;20389;-74
2022/06/23 01:18:21;;;;;;;7.45;3.80;;;19.10;99.90;;;;;;5085364;28;20027;-73
2022/06/23 01:21:05;;;;;;;5.45;4.20;;;19.10;99.90;;;;;;5087547;28;20020;-73
2022/06/23 01:24:07;;;;;;;10.18;4.30;;;19.10;99.90;;;;;;5091710;28;20022;-73
2022/06/23 01:26:58;;;;;;;5.60;3.72;;;19.00;99.90;;;;;;5087299;28;20024;-73
2022/06/23 01:29:33;;;;;;;;;;;19.00;99.90;;;;;;5095556;28;20446;-73
2022/06/23 01:32:18;;;;;;;7.88;3.95;;;19.00;99.90;;;;;;5094971;28;20357;-73
2022/06/23 01:35:06;;;;;;;6.10;4.43;;;18.90;99.90;;;;;;5098519;28;20024;-73
2022/06/23 01:37:50;;;;;;;6.03;4.65;;;18.90;99.90;;;;;;5078015;28;20028;-73
2022/06/23 01:40:30;;;;;;;8.35;3.40;;;18.90;99.90;;;;;;5083105;28;20029;-73
2022/06/23 01:43:02;;;;;;;5.70;4.15;;;18.90;99.90;;;;;;5081634;28;20459;-73
2022/06/23 01:45:38;;;;;;;5.03;3.88;;;18.90;99.90;;;;;;5085347;28;20028;-73
2022/06/23 01:51:30;;;;;;;5.70;3.95;;;18.90;99.90;;;;;;5084778;28;20032;-73
2022/06/23 01:54:20;;;;;;;6.18;3.78;;;18.90;99.90;;;;;;5085974;28;20019;-73
2022/06/23 01:57:11;;;;;;;8.98;4.20;;;18.80;99.90;;;;;;5091715;28;20108;-73
2022/06/23 01:59:36;;;;;;;6.20;4.03;;;18.80;99.90;;;;;;5090411;28;20051;-73
2022/06/23 02:02:11;;;;;;;8.20;4.35;;;18.80;99.90;;;;;;5095492;28;20028;-73
2022/06/23 02:05:04;;;;;;;9.20;4.65;;;18.70;99.90;;;;;;5094610;28;20016;-73
2022/06/23 02:07:39;;;;;;;5.72;4.20;;;18.70;99.90;;;;;;5095254;28;20035;-74
2022/06/23 02:10:20;;;;;;;7.65;4.65;;;18.70;99.90;;;;;;5097753;28;20035;-73
2022/06/23 02:13:05;;;;;;;;;;;18.70;99.90;;;;;;5094685;28;20042;-73
2022/06/23 02:16:06;;;;;;;8.55;4.85;;;18.70;99.90;;;;;;5096001;28;19970;-73
2022/06/23 02:19:07;;;;;;;8.05;4.93;;;18.70;99.90;;;;;;5043535;28;20065;-73
2022/06/23 02:22:00;;;;;;;10.77;5.28;;;18.70;99.90;;;;;;5078948;27;20492;-73
2022/06/23 02:24:44;;;;;;;6.55;4.70;;;18.70;99.90;;;;;;5096236;28;20481;-74
2022/06/23 02:27:25;;;;;;;11.93;5.03;;;18.70;99.90;;;;;;5092023;28;20477;-73
2022/06/23 02:30:00;;;;;;;7.20;4.53;;;18.60;99.90;;;;;;5095834;28;20590;-73
2022/06/23 02:32:35;;;;;;;11.82;4.95;;;18.60;99.90;;;;;;5096110;28;20020;-73
2022/06/23 02:35:13;;;;;;;7.25;4.55;;;18.60;99.90;;;;;;5083684;28;20027;-73
2022/06/23 02:38:17;;;;;;;8.55;5.30;;;18.60;99.90;;;;;;5078231;28;20432;-73
2022/06/23 02:40:48;;;;;;;8.98;5.03;;;18.60;99.90;;;;;;5081320;28;20050;-73
2022/06/23 02:43:32;;;;;;;9.45;4.68;;;18.60;99.90;;;;;;5088470;28;20073;-73
2022/06/23 02:46:25;;;;;;;7.50;4.57;;;18.50;99.90;;;;;;5085074;28;20026;-73
2022/06/23 02:48:53;;;;;;;10.52;4.03;;;18.40;99.90;;;;;;5082340;28;20056;-73
2022/06/23 02:51:41;;;;;;;7.78;4.72;;;18.40;99.90;;;;;;5084091;28;20082;-73
2022/06/23 02:54:44;;;;;;;6.43;4.45;;;18.30;99.90;;;;;;5090092;28;20036;-73
2022/06/23 02:57:40;;;;;;;8.27;4.82;;;18.30;99.90;;;;;;5092523;28;20019;-73
2022/06/23 03:00:30;;;;;;;7.45;5.00;;;18.20;99.90;;;;;;5090838;28;20052;-73
2022/06/23 03:03:09;;;;;;;8.98;5.75;;;18.20;99.90;;;;;;5086886;28;20028;-73
2022/06/23 03:05:47;;;;;;;9.45;4.95;;;18.10;99.90;;;;;;5087766;28;20034;-73
2022/06/23 03:08:42;;;;;;;5.95;4.63;;;18.10;99.90;;;;;;5081179;28;20020;-72
2022/06/23 03:11:11;;;;;;;8.15;4.90;;;18.10;99.90;;;;;;5083048;28;20488;-72
2022/06/23 03:13:43;;;;;;;7.20;4.82;;;18.10;99.90;;;;;;5089931;28;20023;-73
2022/06/23 03:16:22;;;;;;;6.82;4.60;;;18.10;99.90;;;;;;5093863;28;20024;-73
2022/06/23 03:18:52;;;;;;;6.50;4.75;;;18.10;99.90;;;;;;5083365;28;20035;-73
2022/06/23 03:21:26;;;;;;;11.43;5.65;;;18.10;99.90;;;;;;5090427;28;20484;-73
2022/06/23 03:24:08;;;;;;;8.70;4.95;;;18.10;99.90;;;;;;5089681;28;20091;-73
2022/06/23 03:26:45;;;;;;;11.30;4.95;;;18.10;99.90;;;;;;5096777;28;20031;-72
2022/06/23 03:29:31;;;;;;;6.00;4.90;;;18.10;99.90;;;;;;5098103;28;20025;-72
2022/06/23 03:32:30;;;;;;;12.65;4.95;;;18.00;99.90;;;;;;5098640;28;20020;-72
2022/06/23 03:35:21;;;;;;;10.02;5.95;;;18.00;99.90;;;;;;5088662;28;20027;-73
2022/06/23 03:37:51;;;;;;;5.30;4.35;;;18.00;99.90;;;;;;5081750;28;20099;-72
2022/06/23 03:43:10;;;;;;;8.88;5.57;;;18.00;99.90;;;;;;5084366;28;20396;-72
2022/06/23 03:45:41;;;;;;;11.07;4.93;;;18.00;99.90;;;;;;5085016;28;20097;-72
2022/06/23 03:48:19;;;;;;;12.63;5.45;;;18.00;99.90;;;;;;5086631;28;20021;-72
2022/06/23 03:50:59;;;;;;;7.68;5.10;;;18.00;99.90;;;;;;5089111;28;20702;-72
2022/06/23 03:53:45;;;;;;;7.95;4.85;;;18.10;99.90;;;;;;5091706;28;20020;-72
2022/06/23 03:56:17;;;;;;;9.25;5.07;;;18.10;99.90;;;;;;5092719;28;20555;-72
2022/06/23 03:58:52;;;;;;;10.73;5.00;;;18.10;99.90;;;;;;5096575;28;20021;-72
2022/06/23 04:01:28;;;;;;;8.00;4.72;;;18.10;99.90;;;;;;5093749;28;20028;-72
2022/06/23 04:04:20;;;;;;;8.70;5.10;;;18.20;99.90;;;;;;5094855;28;20020;-72
2022/06/23 04:06:48;;;;;;;8.23;4.93;;;18.20;99.90;;;;;;5084112;28;20070;-72
2022/06/23 04:09:19;;;;;;;5.15;4.38;;;18.20;99.90;;;;;;5085201;28;20040;-72
2022/06/23 04:12:05;;;;;;;6.35;4.97;;;18.30;99.90;;;;;;5091706;28;20032;-72
2022/06/23 04:14:55;;;;;;;8.95;4.90;;;18.30;99.90;;;;;;5092528;28;20387;-72
2022/06/23 04:17:32;;;;;;;7.82;4.68;;;18.30;99.90;;;;;;5090100;28;20054;-72
2022/06/23 04:20:42;;;;;;;8.77;4.90;;;18.40;99.90;;;;;;5094595;28;20016;-72
2022/06/23 04:23:11;;;;;;;6.70;5.03;;;18.40;99.90;;;;;;5094429;28;20423;-72
2022/06/23 04:25:48;;;;;;;10.18;5.40;;;18.40;99.90;;;;;;5096173;28;20392;-72
2022/06/23 04:28:46;;;;;;;10.63;5.22;;;18.50;99.90;;;;;;5099110;28;20028;-72
2022/06/23 04:31:26;;;;;;;11.45;5.60;;;18.50;99.90;;;;;;5080360;28;20025;-72
2022/06/23 04:33:54;;;;;;;6.77;4.73;;;18.50;99.90;;;;;;5081486;28;20028;-72
2022/06/23 04:36:25;;;;;;;10.52;4.93;;;18.60;99.90;;;;;;5082121;28;20020;-72
2022/06/23 04:39:08;;;;;;;6.78;4.75;;;18.60;99.90;;;;;;5086059;28;20008;-72
2022/06/23 04:41:59;;;;;;;10.68;5.32;;;18.60;99.90;;;;;;5084137;28;20392;-72
2022/06/23 04:44:29;;;;;;;9.35;4.93;;;18.70;99.90;;;;;;5085186;28;20107;-73
2022/06/23 04:47:02;;;;;;;9.80;5.75;;;18.80;99.90;;;;;;5088910;28;20028;-72
2022/06/23 04:49:36;;;;;;;7.70;4.53;;;18.80;99.90;;;;;;5088323;28;20049;-73
2022/06/23 04:52:05;;;;;;;6.43;5.05;;;18.90;99.90;;;;;;5092129;28;20032;-72
2022/06/23 04:54:50;;;;;;;10.75;4.72;;;18.90;99.90;;;;;;5089276;28;20021;-72
2022/06/23 04:57:22;;;;;;;7.80;4.97;;;19.00;99.90;;;;;;5097007;28;20369;-73
2022/06/23 04:59:51;;;;;;;9.15;4.32;;;19.00;99.90;;;;;;5094336;28;20085;-72
2022/06/23 05:02:25;;;;;;;7.75;4.85;;;19.00;99.90;;;;;;5098639;28;20020;-72
2022/06/23 05:05:00;;;;;;;9.50;5.53;;;18.90;99.90;;;;;;5098683;28;20059;-72
2022/06/23 05:08:00;;;;;;;6.50;5.15;;;18.90;99.90;;;;;;5087955;28;20419;-72
2022/06/23 05:10:34;;;;;;;9.43;4.97;;;18.90;99.90;;;;;;5088223;28;20023;-72
2022/06/23 05:13:15;;;;;;;14.30;5.07;;;18.90;99.90;;;;;;5095730;28;20313;-72
2022/06/23 05:16:05;;;;;;;9.13;6.47;;;18.90;99.90;;;;;;5094905;28;20107;-72
2022/06/23 05:18:35;;;;;;;7.15;5.53;;;18.90;99.90;;;;;;5098087;28;20020;-71
2022/06/23 05:21:09;;;;;;;6.35;4.88;;;18.90;99.90;;;;;;5094161;28;20029;-72
2022/06/23 05:23:46;;;;;;;8.30;4.68;;;18.90;99.90;;;;;;5079129;28;20025;-72
2022/06/23 05:26:30;;;;;;;7.47;4.95;;;19.00;99.90;;;;;;5080363;28;20384;-72
2022/06/23 05:29:01;;;;;;;9.25;5.07;;;19.10;99.90;;;;;;5083417;28;20052;-72
2022/06/23 05:31:34;;;;;;;6.82;5.03;;;19.20;99.90;;;;;;5092659;28;20024;-72
2022/06/23 05:34:06;;;;;;;9.02;4.75;;;19.30;99.90;;;;;;5086772;28;20027;-72
2022/06/23 05:36:42;;;;;;;8.10;5.05;;;19.30;99.90;;;;;;5084861;28;20108;-72
2022/06/23 05:39:22;;;;;;;6.72;4.82;;;19.40;99.90;;;;;;5085198;28;20464;-72
2022/06/23 05:41:52;;;;;;;10.45;5.53;;;19.50;99.90;;;;;;5093555;28;20024;-72
2022/06/23 05:44:51;;;;;;;9.57;4.22;;;19.60;99.90;;;;;;5094254;28;20020;-72
2022/06/23 05:47:19;;;;;;;7.97;5.03;;;19.60;99.90;;;;;;5085335;28;20034;-72
2022/06/23 05:49:51;;;;;;;6.63;4.68;;;19.70;99.90;;;;;;5093816;28;20047;-73
2022/06/23 05:52:43;;;;;;;12.18;6.05;;;19.70;99.90;;;;;;5096867;28;20043;-72
2022/06/23 05:55:31;;;;;;;8.40;5.50;;;19.70;99.90;;;;;;5092645;28;20024;-72
2022/06/23 05:58:01;;;;;;;7.00;5.60;;;19.70;99.90;;;;;;5095873;28;20043;-72
2022/06/23 06:00:42;;;;;;;7.93;5.75;;;19.70;99.90;;;;;;5095191;28;20024;-72
2022/06/23 06:03:17;;;;;;;11.88;5.57;;;19.90;99.90;;;;;;5082355;28;20120;-72
2022/06/23 06:05:46;;;;;;;8.55;4.85;;;19.90;99.90;;;;;;5091836;28;20048;-73
2022/06/23 06:08:28;;;;;;;9.60;5.80;;;20.00;99.90;;;;;;5092640;28;20028;-72
2022/06/23 06:10:55;;;;;;;11.25;6.03;;;20.10;99.90;;;;;;5093716;28;20028;-72
2022/06/23 06:13:28;;;;;;;12.68;5.80;;;20.20;99.90;;;;;;5097501;28;20496;-72
2022/06/23 06:15:56;;;;;;;11.32;5.45;;;20.20;99.90;;;;;;5095655;28;20066;-72
2022/06/23 06:18:35;;;;;;;8.73;5.13;;;20.30;99.90;;;;;;5078678;28;20020;-72
2022/06/23 06:21:03;;;;;;;7.05;5.85;;;20.50;99.90;;;;;;5081405;28;20028;-73
2022/06/23 06:24:01;;;;;;;9.48;5.10;;;20.70;99.90;;;;;;5078575;28;20028;-72
2022/06/23 06:26:41;;;;;;;8.85;5.78;;;20.80;99.90;;;;;;5079914;28;20111;-72
2022/06/23 06:29:17;;;;;;;6.55;4.88;;;20.90;99.90;;;;;;5085328;28;20487;-73
2022/06/23 06:31:53;;;;;;;15.13;5.70;;;21.10;99.90;;;;;;5090023;28;20024;-73
2022/06/23 06:34:48;;;;;;;9.65;5.10;;;21.30;99.90;;;;;;5084034;28;20020;-73
2022/06/23 06:37:16;;;;;;;9.85;5.28;;;21.30;99.90;;;;;;5076649;28;20020;-73
2022/06/23 06:39:52;;;;;;;9.30;4.72;;;21.30;99.90;;;;;;5092451;28;20078;-74
2022/06/23 06:42:25;;;;;;;10.10;5.00;;;21.40;99.90;;;;;;5094689;28;20061;-73
2022/06/23 06:44:55;;;;;;;10.13;4.53;;;21.50;99.90;;;;;;5094494;28;20028;-73
2022/06/23 06:47:29;;;;;;;7.10;3.78;;;21.50;99.90;;;;;;5095826;28;20024;-74
2022/06/23 06:49:59;;;;;;;11.63;4.68;;;21.70;99.90;;;;;;5082214;28;20091;-74
2022/06/23 06:52:29;;;;;;;11.73;4.68;;;21.80;99.90;;;;;;5077038;28;20024;-74
2022/06/23 06:55:05;;;;;;;14.80;5.05;;;22.00;99.90;;;;;;5082382;28;20400;-74
2022/06/23 06:57:46;;;;;;;8.40;4.78;;;22.10;99.90;;;;;;5080831;28;20020;-74
2022/06/23 07:00:32;;;;;;;6.63;4.25;;;22.20;99.90;;;;;;5088547;28;20356;-75
2022/06/23 07:03:04;;;;;;;7.53;4.60;;;22.20;99.90;;;;;;5092170;28;20027;-75
2022/06/23 07:05:41;;;;;;;10.63;5.43;;;22.20;99.90;;;;;;5087381;28;20114;-75
2022/06/23 07:08:25;;;;;;;8.40;4.38;;;22.20;99.90;;;;;;5087491;28;20024;-74
2022/06/23 07:11:18;;;;;;;8.77;4.07;;;22.30;99.90;;;;;;5089719;28;20024;-74
2022/06/23 07:13:57;;;;;;;12.80;4.68;;;22.40;99.90;;;;;;5093990;28;20027;-75
2022/06/23 07:16:43;;;;;;;6.78;3.85;;;22.40;99.90;;;;;;5090078;28;20083;-74
2022/06/23 07:19:27;;;;;;;6.63;4.63;;;22.40;99.90;;;;;;5093875;28;20495;-74
2022/06/23 07:22:04;;;;;;;11.40;4.45;;;22.30;99.90;;;;;;5076302;28;20028;-74
2022/06/23 07:24:40;;;;;;;10.55;4.35;;;22.20;99.90;;;;;;5078925;28;20060;-74
2022/06/23 07:27:17;;;;;;;8.50;4.00;;;22.30;99.90;;;;;;5079665;28;20031;-74
2022/06/23 07:30:05;;;;;;;14.40;5.15;;;22.60;99.90;;;;;;5080924;28;20019;-75
2022/06/23 07:32:49;;;;;;;12.30;4.60;;;22.70;99.90;;;;;;5087086;28;20031;-74
2022/06/23 07:35:49;;;;;;;10.00;4.93;;;22.80;99.90;;;;;;5088632;28;20012;-74
2022/06/23 07:38:23;;;;;;;10.63;5.10;;;22.70;99.90;;;;;;5084629;28;20021;-74
2022/06/23 07:41:01;;;;;;;10.73;5.28;;;22.90;99.90;;;;;;5084310;28;20251;-74
2022/06/23 07:43:33;;;;;;;13.90;5.10;;;23.10;99.90;;;;;;5088832;28;20052;-75
2022/06/23 07:46:01;;;;;;;9.38;4.30;;;23.20;99.90;;;;;;5092435;28;20027;-75
2022/06/23 07:48:29;;;;;;;8.20;3.60;;;23.30;99.90;;;;;;5090972;28;20021;-74
2022/06/23 07:50:57;;;;;;;8.98;3.83;;;23.10;99.90;;;;;;5095765;28;20430;-75
2022/06/23 07:53:34;;;;;;;6.88;3.50;;;23.00;99.90;;;;;;5090319;28;20115;-75
2022/06/23 07:56:00;;;;;;;6.05;3.13;;;23.00;99.90;;;;;;5076523;28;20029;-75
2022/06/23 07:58:29;;;;;;;3.95;2.47;;;23.00;99.90;;;;;;5080187;28;20025;-74
2022/06/23 08:01:11;;;;;;;4.93;3.25;;;23.10;99.90;;;;;;5079286;28;20050;-75
2022/06/23 08:03:45;;;;;;;7.00;2.65;;;23.30;99.90;;;;;;5080312;28;20065;-74
2022/06/23 08:06:17;;;;;;;5.30;3.67;;;23.40;99.90;;;;;;5083154;28;20025;-74
2022/06/23 08:08:45;;;;;;;11.73;4.32;;;23.50;99.90;;;;;;5090896;28;20049;-74
2022/06/23 08:14:35;;;;;;;7.05;3.47;;;23.60;99.90;;;;;;5090090;28;20031;-74
2022/06/23 08:17:08;;;;;;;4.70;3.53;;;23.70;99.90;;;;;;5075226;28;20032;-74
2022/06/23 08:19:57;;;;;;;10.52;3.70;;;24.10;99.90;;;;;;5096054;28;20023;-75
2022/06/23 08:22:36;;;;;;;9.90;3.05;;;24.30;99.90;;;;;;5095384;28;20016;-75
2022/06/23 08:25:06;;;;;;;7.82;3.40;;;24.60;99.90;;;;;;5098916;28;20099;-75
2022/06/23 08:27:33;;;;;;;5.07;3.10;;;24.80;99.90;;;;;;5094997;28;20515;-75
2022/06/23 08:30:11;;;;;;;12.30;4.35;;;24.90;99.90;;;;;;5080547;28;20091;-76
2022/06/23 08:32:39;;;;;;;6.68;3.05;;;24.90;99.90;;;;;;5082624;28;20029;-74
2022/06/23 08:35:38;;;;;;;5.22;3.15;;;24.90;99.90;;;;;;5082354;28;20023;-75
2022/06/23 08:38:14;;;;;;;7.38;3.70;;;24.80;99.90;;;;;;5083216;28;20046;-75
2022/06/23 08:41:07;;;;;;;10.18;4.07;;;25.00;99.90;;;;;;5089015;28;20031;-76
2022/06/23 08:44:00;;;;;;;6.72;3.60;;;25.00;99.90;;;;;;5088497;28;20040;-75
2022/06/23 08:46:33;;;;;;;6.53;4.28;;;25.20;99.90;;;;;;5086651;28;20028;-76
2022/06/23 08:49:24;;;;;;;13.07;4.68;;;25.10;99.90;;;;;;5085419;28;20055;-76
2022/06/23 08:51:53;;;;;;;9.07;3.38;;;25.10;99.90;;;;;;5091482;28;20035;-75
2022/06/23 08:54:29;;;;;;;8.82;3.80;;;25.10;99.90;;;;;;5095090;28;20020;-75
2022/06/23 08:57:06;;;;;;;11.68;5.20;;;25.30;99.90;;;;;;5096449;28;20027;-75
2022/06/23 08:59:45;;;;;;;8.70;4.03;;;25.20;99.90;;;;;;5096543;28;20024;-75
2022/06/23 09:02:20;;;;;;;8.97;4.40;;;24.90;99.90;;;;;;5098857;28;20012;-75
2022/06/23 09:05:11;;;;;;;10.93;3.95;;;25.00;99.90;;;;;;5081477;28;20020;-76
2022/06/23 09:07:45;;;;;;;12.55;3.72;;;25.10;99.90;;;;;;5086970;28;20062;-75
2022/06/23 09:10:34;;;;;;;7.90;3.47;;;25.10;99.90;;;;;;5088639;28;20035;-76
2022/06/23 09:13:46;;;;;;;8.60;3.42;;;25.40;99.90;;;;;;5089269;28;20115;-76
2022/06/23 09:16:48;;;;;;;6.68;3.85;;;25.90;99.90;;;;;;5089949;28;20024;-76
2022/06/23 09:19:51;;;;;;;8.05;3.10;;;25.70;99.90;;;;;;5090816;28;20599;-75
2022/06/23 09:22:53;;;;;;;15.05;4.45;;;25.80;99.90;;;;;;5091521;28;20431;-75
2022/06/23 09:25:43;;;;;;;8.00;3.42;;;25.40;99.90;;;;;;5095027;28;20085;-74
2022/06/23 09:28:20;;;;;;;;;;;25.10;99.90;;;;;;5086863;28;20023;-75
2022/06/23 09:31:04;;;;;;;6.65;3.33;;;25.00;99.90;;;;;;5081317;28;19912;-75
2022/06/23 09:33:57;;;;;;;8.68;3.00;;;25.00;99.90;;;;;;5080028;28;20469;-75
2022/06/23 09:36:44;;;;;;;6.95;3.05;;;25.20;99.90;;;;;;5079279;28;20464;-76
2022/06/23 09:39:37;;;;;;;9.00;3.78;;;25.30;99.90;;;;;;5086873;28;20061;-75
2022/06/23 09:42:35;;;;;;;9.35;3.75;;;25.50;99.90;;;;;;5067841;28;20032;-75
2022/06/23 09:45:20;;;;;;;10.07;3.92;;;25.60;99.90;;;;;;5086178;28;20016;-76
2022/06/23 09:48:07;;;;;;;7.72;3.08;;;25.60;99.90;;;;;;5090064;28;20077;-75
2022/06/23 09:51:01;;;;;;;8.77;3.67;;;25.30;99.90;;;;;;5085806;28;20051;-76
2022/06/23 09:53:52;;;;;;;9.98;3.70;;;25.20;99.90;;;;;;5093419;28;20009;-76
2022/06/23 09:56:42;;;;;;;7.85;3.53;;;25.10;99.90;;;;;;5093308;28;20029;-75
2022/06/23 09:59:32;;;;;;;8.50;3.63;;;24.90;99.90;;;;;;5095821;28;20020;-76
2022/06/23 10:02:27;;;;;;;11.18;2.83;;;24.70;99.90;;;;;;5094427;28;20077;-75
2022/06/23 10:05:21;;;;;;;9.57;3.83;;;24.50;99.90;;;;;;5095727;28;20024;-76
2022/06/23 10:07:53;;;;;;;10.05;3.63;;;24.20;99.90;;;;;;5086721;28;20020;-76
2022/06/23 10:10:22;;;;;;;7.85;3.45;;;24.00;99.90;;;;;;5088312;28;20042;-76
2022/06/23 10:13:10;;;;;;;8.50;3.28;;;23.90;99.90;;;;;;5090331;28;20031;-77
2022/06/23 10:15:51;;;;;;;5.95;3.22;;;24.00;99.90;;;;;;5092201;28;20047;-76
2022/06/23 10:18:26;;;;;;;13.00;3.75;;;24.10;99.90;;;;;;5086520;28;20075;-76
2022/06/23 10:20:57;;;;;;;5.50;3.40;;;24.40;99.90;;;;;;5093825;28;20057;-76
2022/06/23 10:23:40;;;;;;;5.70;3.33;;;24.60;99.90;;;;;;5095297;28;20059;-77
2022/06/23 10:26:22;;;;;;;7.65;3.17;;;24.60;99.90;;;;;;5089951;28;20025;-76
2022/06/23 10:29:14;;;;;;;6.07;3.17;;;24.70;99.90;;;;;;5080277;28;20103;-76
2022/06/23 10:31:58;;;;;;;9.02;3.17;;;25.00;99.90;;;;;;5067046;28;20098;-77
2022/06/23 10:34:52;;;;;;;5.57;2.67;;;25.30;99.90;;;;;;5082867;28;20023;-76
2022/06/23 10:37:56;;;;;;;10.32;3.45;;;25.40;99.90;;;;;;5086631;28;20016;-76
2022/06/23 10:40:41;;;;;;;7.95;3.28;;;25.50;99.90;;;;;;5087398;28;20023;-77
2022/06/23 10:43:13;;;;;;;6.60;3.08;;;25.40;99.90;;;;;;5084225;28;20024;-76
2022/06/23 10:45:56;;;;;;;7.45;2.60;;;25.30;99.90;;;;;;5084297;28;20024;-76
2022/06/23 10:48:34;;;;;;;5.80;3.35;;;25.40;99.90;;;;;;5089830;28;20479;-77
2022/06/23 10:51:19;;;;;;;5.22;2.70;;;25.50;99.90;;;;;;5092737;28;20035;-78
2022/06/23 10:54:14;;;;;;;5.60;2.58;;;25.70;99.90;;;;;;5084841;28;20116;-78
2022/06/23 10:57:25;;;;;;;7.97;3.15;;;25.80;99.90;;;;;;5094651;28;20103;-76
2022/06/23 11:00:05;;;;;;;5.13;3.10;;;25.60;99.90;;;;;;5077330;28;20040;-77
2022/06/23 11:03:03;;;;;;;7.85;3.42;;;25.50;99.90;;;;;;5077378;28;20017;-78
2022/06/23 11:06:01;;;;;;;7.40;3.15;;;25.50;99.90;;;;;;5086875;28;20380;-76
2022/06/23 11:08:37;;;;;;;6.40;3.63;;;25.80;99.90;;;;;;5084068;28;20565;-76
2022/06/23 11:11:18;;;;;;;10.20;3.45;;;26.10;99.90;;;;;;5086479;28;20024;-77
2022/06/23 11:14:03;;;;;;;6.88;3.00;;;26.10;99.90;;;;;;5085795;28;20012;-76
2022/06/23 11:16:38;;;;;;;9.55;4.03;;;26.30;99.90;;;;;;5088892;28;20441;-77
2022/06/23 11:19:26;;;;;;;10.57;4.15;;;26.20;99.90;;;;;;5095231;28;20416;-76
2022/06/23 11:22:37;;;;;;;7.50;3.72;;;26.40;99.90;;;;;;5087402;28;20103;-76
2022/06/23 11:25:15;;;;;;;7.18;3.45;;;26.50;99.90;;;;;;5089809;28;20415;-76
2022/06/23 11:27:54;;;;;;;10.40;4.22;;;26.30;99.90;;;;;;5081850;28;20016;-76
2022/06/23 11:30:22;;;;;;;7.38;3.88;;;26.10;99.90;;;;;;5094086;28;20027;-77
2022/06/23 11:33:20;;;;;;;7.63;4.15;;;26.10;99.90;;;;;;5096587;28;20392;-77
2022/06/23 11:36:01;;;;;;;6.82;3.15;;;26.30;99.90;;;;;;5079975;28;20040;-77
2022/06/23 11:38:49;;;;;;;4.82;3.25;;;26.50;99.90;;;;;;5079166;28;20028;-75
2022/06/23 11:41:32;;;;;;;8.10;3.60;;;26.70;99.90;;;;;;5089300;28;20027;-74
2022/06/23 11:44:10;;;;;;;7.78;3.90;;;26.70;99.90;;;;;;5081921;28;20028;-74
2022/06/23 11:46:43;;;;;;;7.85;3.53;;;26.70;99.90;;;;;;5086621;28;20115;-75
2022/06/23 11:49:17;;;;;;;4.50;2.60;;;26.90;99.90;;;;;;5091459;28;20058;-74
2022/06/23 11:52:01;;;;;;;6.10;3.05;;;27.20;99.90;;;;;;5094806;28;20028;-75
2022/06/23 11:54:34;;;;;;;9.25;3.67;;;27.40;99.90;;;;;;5092259;28;20020;-75
2022/06/23 11:57:38;;;;;;;5.60;3.10;;;27.30;99.90;;;;;;5088078;28;20023;-76
2022/06/23 12:00:11;;;;;;;7.78;3.33;;;27.40;99.90;;;;;;5098147;28;20016;-74
2022/06/23 12:02:52;;;;;;;6.13;3.20;;;27.30;99.90;;;;;;5097781;28;20017;-75
2022/06/23 12:05:46;;;;;;;6.53;3.33;;;27.00;99.90;;;;;;5091244;28;20025;-75
2022/06/23 12:08:35;;;;;;;10.57;3.33;;;27.20;99.90;;;;;;5081623;28;20477;-74
2022/06/23 12:11:01;;;;;;;6.38;3.25;;;27.60;99.90;;;;;;5084012;28;20028;-74
2022/06/23 12:13:28;;;;;;;5.55;3.20;;;28.00;99.90;;;;;;5083243;28;20017;-75
2022/06/23 12:15:55;;;;;;;6.22;3.08;;;27.90;99.90;;;;;;5093121;28;20032;-75
2022/06/23 12:18:34;;;;;;;10.27;2.80;;;27.70;99.90;;;;;;5085491;28;20027;-74
2022/06/23 12:21:05;;;;;;;6.45;3.28;;;27.70;99.90;;;;;;5089254;28;20035;-75
2022/06/23 12:23:46;;;;;;;9.77;3.28;;;27.70;99.90;;;;;;5091959;28;20021;-75
2022/06/23 12:26:17;;;;;;;10.43;3.63;;;27.50;99.90;;;;;;5099449;28;20035;-75
2022/06/23 12:29:18;;;;;;;8.23;2.72;;;27.40;99.90;;;;;;5091308;28;20016;-74
2022/06/23 12:32:10;;;;;;;8.45;2.55;;;27.60;99.90;;;;;;5095477;28;20547;-74
2022/06/23 12:34:48;;;;;;;6.13;2.38;;;27.50;99.90;;;;;;5088569;28;20031;-74
2022/06/23 12:37:46;;;;;;;4.10;2.40;;;27.50;99.90;;;;;;5096976;28;20111;-75
2022/06/23 12:40:30;;;;;;;5.50;2.15;;;27.60;99.90;;;;;;5084256;28;20028;-74
2022/06/23 12:43:16;;;;;;;10.77;2.10;;;27.60;99.90;;;;;;5081592;28;20032;-75
2022/06/23 12:45:50;;;;;;;4.00;2.42;;;27.60;99.90;;;;;;5082018;28;20024;-75
2022/06/23 12:48:42;;;;;;;4.25;2.00;;;27.50;99.90;;;;;;5084419;28;20031;-75
2022/06/23 12:51:45;;;;;;;4.82;2.00;;;27.50;99.90;;;;;;5082596;28;20537;-76
2022/06/23 12:54:31;;;;;;;10.65;2.08;;;27.80;99.90;;;;;;5085470;28;20026;-75
2022/06/23 12:57:20;;;;;;;5.18;1.35;;;28.20;99.90;;;;;;5084407;28;20032;-75
2022/06/23 13:00:04;;;;;;;3.40;1.90;;;28.60;99.90;;;;;;5089696;28;20020;-75
2022/06/23 13:02:38;;;;;;;4.20;2.03;;;28.80;99.70;;;;;;5091667;28;20066;-75
2022/06/23 13:05:33;;;;;;;5.25;1.48;;;29.00;98.00;;;;;;5084585;28;20086;-75
2022/06/23 13:08:07;;;;;;;7.32;1.65;;;29.20;98.40;;;;;;5094273;28;20020;-76
2022/06/23 13:10:44;;;;;;;6.63;1.80;;;29.20;96.80;;;;;;5098208;28;20034;-75
2022/06/23 13:13:40;;;;;;;3.92;1.55;;;29.30;96.50;;;;;;5077583;28;20054;-75
2022/06/23 13:16:36;;;;;;;4.90;1.50;;;29.20;97.40;;;;;;5086191;28;20024;-75
2022/06/23 13:19:11;;;;;;;5.38;1.60;;;29.40;96.10;;;;;;5081161;28;20031;-73
2022/06/23 13:21:39;;;;;;;3.58;1.95;;;29.50;96.40;;;;;;5081117;28;20025;-75
2022/06/23 13:24:14;;;;;;;5.57;1.60;;;29.50;96.00;;;;;;5090093;28;20080;-75
2022/06/23 13:26:44;;;;;;;4.47;1.63;;;29.50;95.80;;;;;;5092386;28;20032;-74
2022/06/23 13:29:17;;;;;;;6.68;1.88;;;29.60;95.20;;;;;;5094220;28;20569;-74
2022/06/23 13:31:49;;;;;;;3.63;1.50;;;29.60;95.90;;;;;;5093161;28;20085;-74
2022/06/23 13:34:30;;;;;;;5.80;1.30;;;29.90;96.30;;;;;;5085632;28;20081;-75
2022/06/23 13:37:08;;;;;;;7.20;1.58;;;30.00;94.20;;;;;;5095278;28;20020;-75
2022/06/23 13:39:46;;;;;;;5.57;1.70;;;30.10;94.70;;;;;;5079201;28;20087;-74
2022/06/23 13:42:19;;;;;;;7.18;1.67;;;29.70;93.40;;;;;;5081367;28;20012;-73
2022/06/23 13:44:51;;;;;;;5.78;1.60;;;29.80;93.40;;;;;;5080838;28;20032;-74
2022/06/23 13:47:21;;;;;;;11.02;2.17;;;29.70;93.50;;;;;;5081794;28;20048;-73
2022/06/23 13:50:01;;;;;;;4.57;1.40;;;29.90;94.60;;;;;;5082639;28;20054;-74
2022/06/23 13:52:50;;;;;;;7.25;1.60;;;29.90;93.50;;;;;;5085779;28;20484;-74
2022/06/23 13:55:26;;;;;;;2.20;1.20;;;30.10;92.80;;;;;;5076574;28;20035;-73
2022/06/23 13:58:05;;;;;;;5.07;1.95;;;30.00;92.30;;;;;;5087309;28;20016;-74
2022/06/23 14:00:39;;;;;;;4.78;1.17;;;29.80;92.60;;;;;;5091245;28;20039;-74
2022/06/23 14:03:43;;;;;;;4.57;1.60;;;29.50;92.30;;;;;;5091981;28;20024;-74
2022/06/23 14:06:24;;;;;;;4.50;1.30;;;29.20;93.20;;;;;;5013515;28;20413;-75